sensor_id;sensor_type;location;lat;lon;timestamp;P1;durP1;ratioP1;P2;durP2;ratioP2
422;SDS011;198;48.752;9.180;2024-02-26T00:02:15;3.07;;;1.60;;
422;SDS011;198;48.752;9.180;2024-02-26T00:04:41;1.17;;;1.13;;
422;SDS011;198;48.752;9.180;2024-02-26T00:07:07;6.30;;;2.10;;
422;SDS011;198;48.752;9.180;2024-02-26T00:09:32;4.20;;;1.90;;
422;SDS011;198;48.752;9.180;2024-02-26T00:12:01;4.53;;;1.73;;
422;SDS011;198;48.752;9.180;2024-02-26T00:14:28;2.50;;;1.77;;
422;SDS011;198;48.752;9.180;2024-02-26T00:16:54;3.70;;;1.47;;
422;SDS011;198;48.752;9.180;2024-02-26T00:19:20;1.77;;;1.27;;
422;SDS011;198;48.752;9.180;2024-02-26T00:21:45;4.87;;;1.60;;
422;SDS011;198;48.752;9.180;2024-02-26T00:24:11;2.90;;;1.60;;
422;SDS011;198;48.752;9.180;2024-02-26T00:26:36;4.30;;;1.90;;
422;SDS011;198;48.752;9.180;2024-02-26T00:29:02;2.23;;;1.40;;
422;SDS011;198;48.752;9.180;2024-02-26T00:31:27;5.07;;;1.60;;
422;SDS011;198;48.752;9.180;2024-02-26T00:33:53;2.10;;;1.63;;
422;SDS011;198;48.752;9.180;2024-02-26T00:36:18;2.40;;;1.37;;
422;SDS011;198;48.752;9.180;2024-02-26T00:38:44;2.23;;;1.23;;
422;SDS011;198;48.752;9.180;2024-02-26T00:41:15;2.37;;;1.50;;
422;SDS011;198;48.752;9.180;2024-02-26T00:43:41;1.50;;;1.40;;
422;SDS011;198;48.752;9.180;2024-02-26T00:46:07;3.00;;;1.50;;
422;SDS011;198;48.752;9.180;2024-02-26T00:48:33;2.90;;;1.47;;
422;SDS011;198;48.752;9.180;2024-02-26T00:50:58;2.97;;;1.70;;
422;SDS011;198;48.752;9.180;2024-02-26T00:53:24;3.43;;;2.07;;
422;SDS011;198;48.752;9.180;2024-02-26T00:55:50;2.30;;;1.60;;
422;SDS011;198;48.752;9.180;2024-02-26T00:58:15;10.83;;;2.10;;
422;SDS011;198;48.752;9.180;2024-02-26T01:00:41;4.77;;;1.80;;
422;SDS011;198;48.752;9.180;2024-02-26T01:03:07;2.63;;;1.60;;
422;SDS011;198;48.752;9.180;2024-02-26T01:05:32;3.93;;;2.00;;
422;SDS011;198;48.752;9.180;2024-02-26T01:07:58;2.53;;;2.07;;
422;SDS011;198;48.752;9.180;2024-02-26T01:10:24;4.53;;;1.50;;
422;SDS011;198;48.752;9.180;2024-02-26T01:12:49;2.77;;;2.00;;
422;SDS011;198;48.752;9.180;2024-02-26T01:15:15;3.73;;;1.60;;
422;SDS011;198;48.752;9.180;2024-02-26T01:17:40;1.90;;;1.20;;
422;SDS011;198;48.752;9.180;2024-02-26T01:20:06;3.87;;;1.43;;
422;SDS011;198;48.752;9.180;2024-02-26T01:22:33;1.83;;;1.00;;
422;SDS011;198;48.752;9.180;2024-02-26T01:24:59;2.13;;;1.40;;
422;SDS011;198;48.752;9.180;2024-02-26T01:27:24;2.00;;;1.73;;
422;SDS011;198;48.752;9.180;2024-02-26T01:29:52;1.77;;;1.20;;
422;SDS011;198;48.752;9.180;2024-02-26T01:32:17;2.60;;;1.43;;
422;SDS011;198;48.752;9.180;2024-02-26T01:34:43;2.90;;;1.60;;
422;SDS011;198;48.752;9.180;2024-02-26T01:37:08;1.33;;;1.27;;
422;SDS011;198;48.752;9.180;2024-02-26T01:39:34;1.30;;;1.20;;
422;SDS011;198;48.752;9.180;2024-02-26T01:42:00;5.33;;;2.00;;
422;SDS011;198;48.752;9.180;2024-02-26T01:44:26;2.53;;;1.43;;
422;SDS011;198;48.752;9.180;2024-02-26T01:46:51;1.30;;;1.10;;
422;SDS011;198;48.752;9.180;2024-02-26T01:49:18;1.30;;;1.20;;
422;SDS011;198;48.752;9.180;2024-02-26T01:51:44;2.30;;;1.40;;
422;SDS011;198;48.752;9.180;2024-02-26T01:54:10;2.27;;;1.57;;
422;SDS011;198;48.752;9.180;2024-02-26T01:56:36;4.43;;;1.40;;
422;SDS011;198;48.752;9.180;2024-02-26T01:59:03;6.93;;;1.47;;
422;SDS011;198;48.752;9.180;2024-02-26T02:01:31;1.53;;;1.17;;
422;SDS011;198;48.752;9.180;2024-02-26T02:03:58;3.40;;;2.10;;
422;SDS011;198;48.752;9.180;2024-02-26T02:06:25;2.30;;;1.60;;
422;SDS011;198;48.752;9.180;2024-02-26T02:08:52;2.03;;;1.57;;
422;SDS011;198;48.752;9.180;2024-02-26T02:11:19;2.07;;;1.80;;
422;SDS011;198;48.752;9.180;2024-02-26T02:13:44;3.60;;;1.80;;
422;SDS011;198;48.752;9.180;2024-02-26T02:16:10;1.90;;;1.50;;
422;SDS011;198;48.752;9.180;2024-02-26T02:18:36;4.03;;;1.60;;
422;SDS011;198;48.752;9.180;2024-02-26T02:21:01;2.10;;;1.90;;
422;SDS011;198;48.752;9.180;2024-02-26T02:23:27;1.80;;;1.40;;
422;SDS011;198;48.752;9.180;2024-02-26T02:25:52;1.80;;;1.40;;
422;SDS011;198;48.752;9.180;2024-02-26T02:28:20;2.20;;;1.30;;
422;SDS011;198;48.752;9.180;2024-02-26T02:30:46;2.83;;;1.90;;
422;SDS011;198;48.752;9.180;2024-02-26T02:33:12;3.80;;;1.67;;
422;SDS011;198;48.752;9.180;2024-02-26T02:35:39;1.30;;;1.30;;
422;SDS011;198;48.752;9.180;2024-02-26T02:38:05;1.80;;;1.10;;
422;SDS011;198;48.752;9.180;2024-02-26T02:40:30;0.83;;;0.80;;
422;SDS011;198;48.752;9.180;2024-02-26T02:42:56;1.33;;;0.97;;
422;SDS011;198;48.752;9.180;2024-02-26T02:45:21;3.20;;;1.37;;
422;SDS011;198;48.752;9.180;2024-02-26T02:47:47;1.33;;;1.17;;
422;SDS011;198;48.752;9.180;2024-02-26T02:50:12;1.13;;;1.03;;
422;SDS011;198;48.752;9.180;2024-02-26T02:52:37;1.63;;;1.10;;
422;SDS011;198;48.752;9.180;2024-02-26T02:55:03;3.80;;;1.60;;
422;SDS011;198;48.752;9.180;2024-02-26T02:57:29;1.33;;;1.03;;
422;SDS011;198;48.752;9.180;2024-02-26T02:59:55;1.33;;;1.20;;
422;SDS011;198;48.752;9.180;2024-02-26T03:02:21;1.73;;;1.20;;
422;SDS011;198;48.752;9.180;2024-02-26T03:04:46;2.27;;;1.40;;
422;SDS011;198;48.752;9.180;2024-02-26T03:07:12;1.20;;;0.87;;
422;SDS011;198;48.752;9.180;2024-02-26T03:09:38;3.70;;;2.17;;
422;SDS011;198;48.752;9.180;2024-02-26T03:12:03;4.13;;;1.03;;
422;SDS011;198;48.752;9.180;2024-02-26T03:14:29;1.17;;;1.07;;
422;SDS011;198;48.752;9.180;2024-02-26T03:16:54;0.97;;;0.87;;
422;SDS011;198;48.752;9.180;2024-02-26T03:19:20;1.40;;;0.90;;
422;SDS011;198;48.752;9.180;2024-02-26T03:21:46;1.40;;;1.30;;
422;SDS011;198;48.752;9.180;2024-02-26T03:24:11;1.60;;;1.10;;
422;SDS011;198;48.752;9.180;2024-02-26T03:26:37;0.77;;;0.70;;
422;SDS011;198;48.752;9.180;2024-02-26T03:29:03;1.90;;;1.17;;
422;SDS011;198;48.752;9.180;2024-02-26T03:31:29;2.57;;;0.90;;
422;SDS011;198;48.752;9.180;2024-02-26T03:33:54;1.03;;;0.93;;
422;SDS011;198;48.752;9.180;2024-02-26T03:36:20;0.80;;;0.70;;
422;SDS011;198;48.752;9.180;2024-02-26T03:38:46;1.03;;;0.70;;
422;SDS011;198;48.752;9.180;2024-02-26T03:41:12;1.03;;;0.80;;
422;SDS011;198;48.752;9.180;2024-02-26T03:43:38;1.37;;;1.00;;
422;SDS011;198;48.752;9.180;2024-02-26T03:46:03;0.83;;;0.73;;
422;SDS011;198;48.752;9.180;2024-02-26T03:48:31;1.63;;;1.00;;
422;SDS011;198;48.752;9.180;2024-02-26T03:50:57;0.83;;;0.80;;
422;SDS011;198;48.752;9.180;2024-02-26T03:53:22;0.80;;;0.70;;
422;SDS011;198;48.752;9.180;2024-02-26T03:55:48;0.80;;;0.70;;
422;SDS011;198;48.752;9.180;2024-02-26T03:58:14;0.80;;;0.70;;
422;SDS011;198;48.752;9.180;2024-02-26T04:00:42;2.63;;;0.70;;
422;SDS011;198;48.752;9.180;2024-02-26T04:03:07;1.03;;;0.90;;
422;SDS011;198;48.752;9.180;2024-02-26T04:05:33;7.53;;;1.00;;
422;SDS011;198;48.752;9.180;2024-02-26T04:07:58;0.93;;;0.90;;
422;SDS011;198;48.752;9.180;2024-02-26T04:10:24;1.70;;;0.97;;
422;SDS011;198;48.752;9.180;2024-02-26T04:12:50;1.67;;;1.03;;
422;SDS011;198;48.752;9.180;2024-02-26T04:15:15;1.70;;;1.20;;
422;SDS011;198;48.752;9.180;2024-02-26T04:17:41;2.77;;;1.43;;
422;SDS011;198;48.752;9.180;2024-02-26T04:20:07;1.97;;;1.10;;
422;SDS011;198;48.752;9.180;2024-02-26T04:22:33;1.63;;;1.10;;
422;SDS011;198;48.752;9.180;2024-02-26T04:24:58;1.33;;;1.00;;
422;SDS011;198;48.752;9.180;2024-02-26T04:27:24;1.13;;;1.00;;
422;SDS011;198;48.752;9.180;2024-02-26T04:29:50;1.20;;;0.93;;
422;SDS011;198;48.752;9.180;2024-02-26T04:32:15;1.77;;;1.33;;
422;SDS011;198;48.752;9.180;2024-02-26T04:34:41;1.30;;;1.20;;
422;SDS011;198;48.752;9.180;2024-02-26T04:37:07;2.10;;;1.33;;
422;SDS011;198;48.752;9.180;2024-02-26T04:39:32;5.13;;;1.40;;
422;SDS011;198;48.752;9.180;2024-02-26T04:41:58;3.30;;;1.20;;
422;SDS011;198;48.752;9.180;2024-02-26T04:44:23;1.97;;;1.50;;
422;SDS011;198;48.752;9.180;2024-02-26T04:46:49;1.10;;;1.03;;
422;SDS011;198;48.752;9.180;2024-02-26T04:49:14;1.00;;;0.90;;
422;SDS011;198;48.752;9.180;2024-02-26T04:51:39;1.93;;;1.50;;
422;SDS011;198;48.752;9.180;2024-02-26T04:54:05;2.03;;;1.40;;
422;SDS011;198;48.752;9.180;2024-02-26T04:56:30;1.40;;;1.30;;
422;SDS011;198;48.752;9.180;2024-02-26T04:58:56;2.80;;;1.50;;
422;SDS011;198;48.752;9.180;2024-02-26T05:01:21;3.87;;;1.90;;
422;SDS011;198;48.752;9.180;2024-02-26T05:03:47;3.60;;;1.97;;
422;SDS011;198;48.752;9.180;2024-02-26T05:06:12;3.83;;;1.80;;
422;SDS011;198;48.752;9.180;2024-02-26T05:08:38;1.90;;;1.80;;
422;SDS011;198;48.752;9.180;2024-02-26T05:11:04;3.93;;;2.57;;
422;SDS011;198;48.752;9.180;2024-02-26T05:13:29;5.70;;;2.60;;
422;SDS011;198;48.752;9.180;2024-02-26T05:15:55;3.87;;;2.00;;
422;SDS011;198;48.752;9.180;2024-02-26T05:18:21;3.93;;;2.30;;
422;SDS011;198;48.752;9.180;2024-02-26T05:20:47;5.53;;;2.20;;
422;SDS011;198;48.752;9.180;2024-02-26T05:23:14;2.60;;;2.00;;
422;SDS011;198;48.752;9.180;2024-02-26T05:25:39;4.97;;;2.40;;
422;SDS011;198;48.752;9.180;2024-02-26T05:28:06;4.83;;;2.13;;
422;SDS011;198;48.752;9.180;2024-02-26T05:30:31;3.47;;;1.90;;
422;SDS011;198;48.752;9.180;2024-02-26T05:32:57;4.80;;;2.43;;
422;SDS011;198;48.752;9.180;2024-02-26T05:35:22;5.33;;;2.47;;
422;SDS011;198;48.752;9.180;2024-02-26T05:37:48;3.20;;;2.07;;
422;SDS011;198;48.752;9.180;2024-02-26T05:40:13;6.83;;;2.27;;
422;SDS011;198;48.752;9.180;2024-02-26T05:42:39;4.57;;;1.80;;
422;SDS011;198;48.752;9.180;2024-02-26T05:45:05;2.83;;;2.23;;
422;SDS011;198;48.752;9.180;2024-02-26T05:47:34;3.70;;;2.27;;
422;SDS011;198;48.752;9.180;2024-02-26T05:50:00;3.63;;;2.27;;
422;SDS011;198;48.752;9.180;2024-02-26T05:52:27;4.53;;;2.00;;
422;SDS011;198;48.752;9.180;2024-02-26T05:54:54;2.60;;;1.70;;
422;SDS011;198;48.752;9.180;2024-02-26T05:57:19;3.07;;;1.70;;
422;SDS011;198;48.752;9.180;2024-02-26T05:59:45;4.97;;;2.30;;
422;SDS011;198;48.752;9.180;2024-02-26T06:02:10;2.97;;;2.10;;
422;SDS011;198;48.752;9.180;2024-02-26T06:04:36;5.90;;;1.80;;
422;SDS011;198;48.752;9.180;2024-02-26T06:07:01;1.90;;;1.30;;
422;SDS011;198;48.752;9.180;2024-02-26T06:09:27;2.77;;;1.77;;
422;SDS011;198;48.752;9.180;2024-02-26T06:11:53;2.30;;;1.50;;
422;SDS011;198;48.752;9.180;2024-02-26T06:14:18;1.60;;;1.43;;
422;SDS011;198;48.752;9.180;2024-02-26T06:16:45;1.80;;;1.30;;
422;SDS011;198;48.752;9.180;2024-02-26T06:19:11;1.50;;;1.40;;
422;SDS011;198;48.752;9.180;2024-02-26T06:21:36;1.60;;;1.30;;
422;SDS011;198;48.752;9.180;2024-02-26T06:24:02;2.17;;;1.33;;
422;SDS011;198;48.752;9.180;2024-02-26T06:26:27;1.63;;;1.37;;
422;SDS011;198;48.752;9.180;2024-02-26T06:28:54;2.10;;;1.50;;
422;SDS011;198;48.752;9.180;2024-02-26T06:31:21;1.40;;;1.30;;
422;SDS011;198;48.752;9.180;2024-02-26T06:33:47;1.90;;;1.30;;
422;SDS011;198;48.752;9.180;2024-02-26T06:36:13;1.80;;;1.60;;
422;SDS011;198;48.752;9.180;2024-02-26T06:38:40;3.27;;;1.60;;
422;SDS011;198;48.752;9.180;2024-02-26T06:41:05;1.53;;;1.00;;
422;SDS011;198;48.752;9.180;2024-02-26T06:43:31;1.40;;;1.37;;
422;SDS011;198;48.752;9.180;2024-02-26T06:45:56;2.20;;;1.17;;
422;SDS011;198;48.752;9.180;2024-02-26T06:48:23;10.70;;;1.90;;
422;SDS011;198;48.752;9.180;2024-02-26T06:50:49;1.47;;;1.40;;
422;SDS011;198;48.752;9.180;2024-02-26T06:53:15;2.23;;;1.30;;
422;SDS011;198;48.752;9.180;2024-02-26T06:55:41;1.93;;;1.40;;
422;SDS011;198;48.752;9.180;2024-02-26T06:58:07;2.30;;;1.50;;
422;SDS011;198;48.752;9.180;2024-02-26T07:00:33;3.37;;;1.50;;
422;SDS011;198;48.752;9.180;2024-02-26T07:02:58;2.20;;;1.30;;
422;SDS011;198;48.752;9.180;2024-02-26T07:05:24;1.40;;;1.30;;
422;SDS011;198;48.752;9.180;2024-02-26T07:07:49;2.40;;;1.40;;
422;SDS011;198;48.752;9.180;2024-02-26T07:10:15;4.37;;;2.23;;
422;SDS011;198;48.752;9.180;2024-02-26T07:12:40;3.23;;;1.50;;
422;SDS011;198;48.752;9.180;2024-02-26T07:15:06;4.73;;;1.87;;
422;SDS011;198;48.752;9.180;2024-02-26T07:17:33;3.30;;;1.70;;
422;SDS011;198;48.752;9.180;2024-02-26T07:19:59;3.37;;;2.07;;
422;SDS011;198;48.752;9.180;2024-02-26T07:22:24;3.87;;;1.50;;
422;SDS011;198;48.752;9.180;2024-02-26T07:24:50;4.07;;;1.63;;
422;SDS011;198;48.752;9.180;2024-02-26T07:27:16;6.97;;;1.40;;
422;SDS011;198;48.752;9.180;2024-02-26T07:29:43;2.90;;;1.80;;
422;SDS011;198;48.752;9.180;2024-02-26T07:32:08;2.00;;;1.37;;
422;SDS011;198;48.752;9.180;2024-02-26T07:34:35;1.90;;;1.47;;
422;SDS011;198;48.752;9.180;2024-02-26T07:37:02;2.00;;;1.40;;
422;SDS011;198;48.752;9.180;2024-02-26T07:39:28;1.77;;;1.53;;
422;SDS011;198;48.752;9.180;2024-02-26T07:41:53;3.80;;;1.70;;
422;SDS011;198;48.752;9.180;2024-02-26T07:44:19;1.70;;;1.07;;
422;SDS011;198;48.752;9.180;2024-02-26T07:46:44;1.43;;;1.30;;
422;SDS011;198;48.752;9.180;2024-02-26T07:49:10;1.37;;;1.30;;
422;SDS011;198;48.752;9.180;2024-02-26T07:51:35;1.07;;;1.03;;
422;SDS011;198;48.752;9.180;2024-02-26T07:54:01;3.63;;;0.93;;
422;SDS011;198;48.752;9.180;2024-02-26T07:56:27;3.40;;;1.13;;
422;SDS011;198;48.752;9.180;2024-02-26T07:58:52;1.30;;;1.00;;
422;SDS011;198;48.752;9.180;2024-02-26T08:01:18;1.10;;;1.10;;
422;SDS011;198;48.752;9.180;2024-02-26T08:03:43;1.90;;;1.30;;
422;SDS011;198;48.752;9.180;2024-02-26T08:06:09;3.03;;;1.03;;
422;SDS011;198;48.752;9.180;2024-02-26T08:08:34;2.27;;;1.27;;
422;SDS011;198;48.752;9.180;2024-02-26T08:11:00;3.70;;;1.60;;
422;SDS011;198;48.752;9.180;2024-02-26T08:13:25;2.73;;;1.33;;
422;SDS011;198;48.752;9.180;2024-02-26T08:15:51;2.10;;;1.60;;
422;SDS011;198;48.752;9.180;2024-02-26T08:18:17;2.03;;;1.60;;
422;SDS011;198;48.752;9.180;2024-02-26T08:20:43;3.63;;;1.83;;
422;SDS011;198;48.752;9.180;2024-02-26T08:23:08;2.87;;;2.03;;
422;SDS011;198;48.752;9.180;2024-02-26T08:25:34;2.90;;;1.67;;
422;SDS011;198;48.752;9.180;2024-02-26T08:27:59;6.87;;;3.40;;
422;SDS011;198;48.752;9.180;2024-02-26T08:30:25;7.17;;;2.50;;
422;SDS011;198;48.752;9.180;2024-02-26T08:32:50;5.23;;;2.20;;
422;SDS011;198;48.752;9.180;2024-02-26T08:35:17;4.47;;;2.60;;
422;SDS011;198;48.752;9.180;2024-02-26T08:37:46;3.70;;;1.87;;
422;SDS011;198;48.752;9.180;2024-02-26T08:40:12;6.97;;;2.40;;
422;SDS011;198;48.752;9.180;2024-02-26T08:42:37;5.77;;;1.97;;
422;SDS011;198;48.752;9.180;2024-02-26T08:45:03;4.57;;;2.00;;
422;SDS011;198;48.752;9.180;2024-02-26T08:47:29;3.97;;;2.10;;
422;SDS011;198;48.752;9.180;2024-02-26T08:49:55;4.13;;;2.30;;
422;SDS011;198;48.752;9.180;2024-02-26T08:52:20;3.53;;;2.00;;
422;SDS011;198;48.752;9.180;2024-02-26T08:54:49;3.40;;;1.90;;
422;SDS011;198;48.752;9.180;2024-02-26T08:57:15;3.23;;;2.10;;
422;SDS011;198;48.752;9.180;2024-02-26T08:59:40;2.93;;;1.70;;
422;SDS011;198;48.752;9.180;2024-02-26T09:02:07;1.90;;;1.57;;
422;SDS011;198;48.752;9.180;2024-02-26T09:04:34;2.97;;;1.20;;
422;SDS011;198;48.752;9.180;2024-02-26T09:07:00;1.80;;;1.60;;
422;SDS011;198;48.752;9.180;2024-02-26T09:09:26;4.13;;;1.70;;
422;SDS011;198;48.752;9.180;2024-02-26T09:11:52;1.30;;;1.07;;
422;SDS011;198;48.752;9.180;2024-02-26T09:14:19;2.70;;;1.40;;
422;SDS011;198;48.752;9.180;2024-02-26T09:16:45;1.73;;;1.63;;
422;SDS011;198;48.752;9.180;2024-02-26T09:19:13;2.70;;;1.57;;
422;SDS011;198;48.752;9.180;2024-02-26T09:21:42;3.13;;;2.07;;
422;SDS011;198;48.752;9.180;2024-02-26T09:24:09;1.60;;;1.33;;
422;SDS011;198;48.752;9.180;2024-02-26T09:26:34;1.30;;;1.17;;
422;SDS011;198;48.752;9.180;2024-02-26T09:29:00;1.73;;;1.67;;
422;SDS011;198;48.752;9.180;2024-02-26T09:31:25;1.97;;;1.57;;
422;SDS011;198;48.752;9.180;2024-02-26T09:33:51;2.10;;;1.47;;
422;SDS011;198;48.752;9.180;2024-02-26T09:36:16;5.33;;;1.90;;
422;SDS011;198;48.752;9.180;2024-02-26T09:38:42;4.00;;;1.70;;
422;SDS011;198;48.752;9.180;2024-02-26T09:41:07;4.93;;;2.13;;
422;SDS011;198;48.752;9.180;2024-02-26T09:43:39;2.80;;;1.67;;
422;SDS011;198;48.752;9.180;2024-02-26T09:46:08;2.37;;;1.60;;
422;SDS011;198;48.752;9.180;2024-02-26T09:48:34;2.20;;;2.00;;
422;SDS011;198;48.752;9.180;2024-02-26T09:51:03;3.00;;;1.83;;
422;SDS011;198;48.752;9.180;2024-02-26T09:53:30;2.80;;;2.10;;
422;SDS011;198;48.752;9.180;2024-02-26T09:55:57;5.33;;;2.40;;
422;SDS011;198;48.752;9.180;2024-02-26T09:58:26;6.93;;;1.50;;
422;SDS011;198;48.752;9.180;2024-02-26T10:00:55;1.67;;;1.60;;
422;SDS011;198;48.752;9.180;2024-02-26T10:03:25;3.50;;;1.80;;
422;SDS011;198;48.752;9.180;2024-02-26T10:05:55;1.30;;;0.90;;
422;SDS011;198;48.752;9.180;2024-02-26T10:08:22;1.63;;;1.20;;
422;SDS011;198;48.752;9.180;2024-02-26T10:10:48;1.53;;;1.00;;
422;SDS011;198;48.752;9.180;2024-02-26T10:13:15;2.00;;;1.33;;
422;SDS011;198;48.752;9.180;2024-02-26T10:15:40;1.13;;;0.93;;
422;SDS011;198;48.752;9.180;2024-02-26T10:18:06;5.03;;;1.10;;
422;SDS011;198;48.752;9.180;2024-02-26T10:20:32;2.90;;;1.07;;
422;SDS011;198;48.752;9.180;2024-02-26T10:22:58;1.70;;;1.63;;
422;SDS011;198;48.752;9.180;2024-02-26T10:25:27;2.57;;;1.10;;
422;SDS011;198;48.752;9.180;2024-02-26T10:27:52;3.17;;;1.13;;
422;SDS011;198;48.752;9.180;2024-02-26T10:30:19;2.57;;;1.37;;
422;SDS011;198;48.752;9.180;2024-02-26T10:32:50;2.03;;;1.70;;
422;SDS011;198;48.752;9.180;2024-02-26T10:35:16;10.13;;;1.40;;
422;SDS011;198;48.752;9.180;2024-02-26T10:37:43;1.33;;;1.10;;
422;SDS011;198;48.752;9.180;2024-02-26T10:40:14;2.23;;;1.90;;
422;SDS011;198;48.752;9.180;2024-02-26T10:42:40;3.87;;;1.83;;
422;SDS011;198;48.752;9.180;2024-02-26T10:45:07;2.90;;;2.13;;
422;SDS011;198;48.752;9.180;2024-02-26T10:47:34;3.47;;;2.20;;
422;SDS011;198;48.752;9.180;2024-02-26T10:50:04;20.90;;;2.67;;
422;SDS011;198;48.752;9.180;2024-02-26T10:52:31;3.53;;;1.70;;
422;SDS011;198;48.752;9.180;2024-02-26T10:55:04;5.30;;;1.93;;
422;SDS011;198;48.752;9.180;2024-02-26T10:57:32;2.93;;;2.30;;
422;SDS011;198;48.752;9.180;2024-02-26T10:59:59;2.60;;;1.70;;
422;SDS011;198;48.752;9.180;2024-02-26T11:02:28;2.10;;;1.50;;
422;SDS011;198;48.752;9.180;2024-02-26T11:04:54;2.80;;;1.80;;
422;SDS011;198;48.752;9.180;2024-02-26T11:07:20;2.77;;;1.70;;
422;SDS011;198;48.752;9.180;2024-02-26T11:09:46;3.53;;;2.00;;
422;SDS011;198;48.752;9.180;2024-02-26T11:12:17;2.70;;;1.73;;
422;SDS011;198;48.752;9.180;2024-02-26T11:14:44;2.73;;;1.67;;
422;SDS011;198;48.752;9.180;2024-02-26T11:17:11;2.03;;;1.60;;
422;SDS011;198;48.752;9.180;2024-02-26T11:19:40;2.03;;;1.27;;
422;SDS011;198;48.752;9.180;2024-02-26T11:22:07;2.90;;;1.97;;
422;SDS011;198;48.752;9.180;2024-02-26T11:24:33;1.37;;;1.30;;
422;SDS011;198;48.752;9.180;2024-02-26T11:26:59;2.37;;;1.70;;
422;SDS011;198;48.752;9.180;2024-02-26T11:29:31;2.97;;;1.63;;
422;SDS011;198;48.752;9.180;2024-02-26T11:32:00;2.30;;;1.40;;
422;SDS011;198;48.752;9.180;2024-02-26T11:34:26;2.20;;;1.13;;
422;SDS011;198;48.752;9.180;2024-02-26T11:36:53;4.00;;;1.50;;
422;SDS011;198;48.752;9.180;2024-02-26T11:39:19;1.17;;;1.13;;
422;SDS011;198;48.752;9.180;2024-02-26T11:41:45;2.50;;;1.30;;
422;SDS011;198;48.752;9.180;2024-02-26T11:44:11;1.53;;;1.10;;
422;SDS011;198;48.752;9.180;2024-02-26T11:46:40;3.03;;;1.37;;
422;SDS011;198;48.752;9.180;2024-02-26T11:51:51;2.90;;;1.23;;
422;SDS011;198;48.752;9.180;2024-02-26T11:57:04;6.87;;;1.30;;
422;SDS011;198;48.752;9.180;2024-02-26T11:59:44;2.80;;;1.50;;
422;SDS011;198;48.752;9.180;2024-02-26T12:02:10;2.03;;;1.33;;
422;SDS011;198;48.752;9.180;2024-02-26T12:04:37;1.37;;;1.03;;
422;SDS011;198;48.752;9.180;2024-02-26T12:07:03;2.60;;;1.20;;
422;SDS011;198;48.752;9.180;2024-02-26T12:09:30;1.53;;;1.13;;
422;SDS011;198;48.752;9.180;2024-02-26T12:12:04;1.33;;;1.10;;
422;SDS011;198;48.752;9.180;2024-02-26T12:14:36;1.60;;;1.10;;
422;SDS011;198;48.752;9.180;2024-02-26T12:17:20;1.77;;;1.10;;
422;SDS011;198;48.752;9.180;2024-02-26T12:19:47;3.57;;;1.33;;
422;SDS011;198;48.752;9.180;2024-02-26T12:22:12;1.73;;;1.10;;
422;SDS011;198;48.752;9.180;2024-02-26T12:24:39;1.70;;;1.30;;
422;SDS011;198;48.752;9.180;2024-02-26T12:27:04;2.20;;;1.10;;
422;SDS011;198;48.752;9.180;2024-02-26T12:29:31;3.00;;;1.10;;
422;SDS011;198;48.752;9.180;2024-02-26T12:31:56;1.70;;;1.10;;
422;SDS011;198;48.752;9.180;2024-02-26T12:34:22;5.03;;;1.10;;
422;SDS011;198;48.752;9.180;2024-02-26T12:36:48;1.80;;;1.70;;
422;SDS011;198;48.752;9.180;2024-02-26T12:39:14;1.60;;;1.27;;
422;SDS011;198;48.752;9.180;2024-02-26T12:41:40;3.27;;;1.00;;
422;SDS011;198;48.752;9.180;2024-02-26T12:44:06;1.50;;;1.40;;
422;SDS011;198;48.752;9.180;2024-02-26T12:46:33;1.77;;;1.43;;
422;SDS011;198;48.752;9.180;2024-02-26T12:48:58;5.20;;;1.20;;
422;SDS011;198;48.752;9.180;2024-02-26T12:51:27;3.33;;;1.10;;
422;SDS011;198;48.752;9.180;2024-02-26T12:53:54;3.97;;;1.43;;
422;SDS011;198;48.752;9.180;2024-02-26T12:56:21;4.03;;;1.20;;
422;SDS011;198;48.752;9.180;2024-02-26T12:58:47;2.30;;;1.33;;
422;SDS011;198;48.752;9.180;2024-02-26T13:01:14;2.83;;;1.10;;
422;SDS011;198;48.752;9.180;2024-02-26T13:03:42;1.50;;;1.20;;
422;SDS011;198;48.752;9.180;2024-02-26T13:06:09;1.33;;;1.00;;
422;SDS011;198;48.752;9.180;2024-02-26T13:08:35;2.57;;;1.20;;
422;SDS011;198;48.752;9.180;2024-02-26T13:11:00;1.93;;;1.40;;
422;SDS011;198;48.752;9.180;2024-02-26T13:13:26;2.67;;;1.60;;
422;SDS011;198;48.752;9.180;2024-02-26T13:16:07;1.40;;;1.13;;
422;SDS011;198;48.752;9.180;2024-02-26T13:18:38;2.80;;;1.57;;
422;SDS011;198;48.752;9.180;2024-02-26T13:21:07;5.23;;;1.83;;
422;SDS011;198;48.752;9.180;2024-02-26T13:23:40;1.40;;;1.10;;
422;SDS011;198;48.752;9.180;2024-02-26T13:26:07;3.70;;;1.70;;
422;SDS011;198;48.752;9.180;2024-02-26T13:28:33;2.20;;;1.50;;
422;SDS011;198;48.752;9.180;2024-02-26T13:31:00;3.03;;;1.43;;
422;SDS011;198;48.752;9.180;2024-02-26T13:33:27;2.57;;;1.10;;
422;SDS011;198;48.752;9.180;2024-02-26T13:35:56;2.23;;;0.90;;
422;SDS011;198;48.752;9.180;2024-02-26T13:38:22;2.93;;;1.37;;
422;SDS011;198;48.752;9.180;2024-02-26T13:40:49;3.97;;;1.93;;
422;SDS011;198;48.752;9.180;2024-02-26T13:43:15;2.20;;;1.53;;
422;SDS011;198;48.752;9.180;2024-02-26T13:45:40;2.40;;;1.47;;
422;SDS011;198;48.752;9.180;2024-02-26T13:48:07;8.03;;;1.90;;
422;SDS011;198;48.752;9.180;2024-02-26T13:50:35;2.63;;;1.60;;
422;SDS011;198;48.752;9.180;2024-02-26T13:53:00;2.57;;;1.87;;
422;SDS011;198;48.752;9.180;2024-02-26T13:55:26;1.60;;;1.30;;
422;SDS011;198;48.752;9.180;2024-02-26T13:57:53;3.20;;;1.83;;
422;SDS011;198;48.752;9.180;2024-02-26T14:00:20;1.20;;;1.13;;
422;SDS011;198;48.752;9.180;2024-02-26T14:02:45;1.10;;;0.90;;
422;SDS011;198;48.752;9.180;2024-02-26T14:05:11;2.37;;;0.90;;
422;SDS011;198;48.752;9.180;2024-02-26T14:07:37;1.63;;;1.00;;
422;SDS011;198;48.752;9.180;2024-02-26T14:10:02;1.70;;;1.23;;
422;SDS011;198;48.752;9.180;2024-02-26T14:12:28;1.53;;;0.90;;
422;SDS011;198;48.752;9.180;2024-02-26T14:14:54;1.77;;;1.00;;
422;SDS011;198;48.752;9.180;2024-02-26T14:17:20;1.17;;;1.10;;
422;SDS011;198;48.752;9.180;2024-02-26T14:19:48;1.40;;;1.00;;
422;SDS011;198;48.752;9.180;2024-02-26T14:22:14;2.50;;;0.80;;
422;SDS011;198;48.752;9.180;2024-02-26T14:24:41;2.60;;;1.20;;
422;SDS011;198;48.752;9.180;2024-02-26T14:27:10;2.07;;;0.90;;
422;SDS011;198;48.752;9.180;2024-02-26T14:29:40;1.00;;;0.83;;
422;SDS011;198;48.752;9.180;2024-02-26T14:32:12;1.33;;;1.27;;
422;SDS011;198;48.752;9.180;2024-02-26T14:34:37;0.87;;;0.83;;
422;SDS011;198;48.752;9.180;2024-02-26T14:37:03;0.97;;;0.90;;
422;SDS011;198;48.752;9.180;2024-02-26T14:39:29;1.40;;;0.73;;
422;SDS011;198;48.752;9.180;2024-02-26T14:41:56;1.60;;;1.00;;
422;SDS011;198;48.752;9.180;2024-02-26T14:44:22;4.30;;;1.17;;
422;SDS011;198;48.752;9.180;2024-02-26T14:46:49;0.93;;;0.70;;
422;SDS011;198;48.752;9.180;2024-02-26T14:49:14;0.70;;;0.70;;
422;SDS011;198;48.752;9.180;2024-02-26T14:51:40;1.80;;;0.80;;
422;SDS011;198;48.752;9.180;2024-02-26T14:54:06;0.93;;;0.70;;
422;SDS011;198;48.752;9.180;2024-02-26T14:56:32;1.73;;;1.20;;
422;SDS011;198;48.752;9.180;2024-02-26T14:58:58;1.10;;;0.87;;
422;SDS011;198;48.752;9.180;2024-02-26T15:01:23;0.77;;;0.70;;
422;SDS011;198;48.752;9.180;2024-02-26T15:03:49;1.80;;;0.80;;
422;SDS011;198;48.752;9.180;2024-02-26T15:06:14;1.27;;;1.17;;
422;SDS011;198;48.752;9.180;2024-02-26T15:08:40;0.80;;;0.80;;
422;SDS011;198;48.752;9.180;2024-02-26T15:11:06;0.80;;;0.70;;
422;SDS011;198;48.752;9.180;2024-02-26T15:13:32;0.80;;;0.70;;
422;SDS011;198;48.752;9.180;2024-02-26T15:15:57;1.27;;;1.07;;
422;SDS011;198;48.752;9.180;2024-02-26T15:18:23;1.10;;;1.10;;
422;SDS011;198;48.752;9.180;2024-02-26T15:20:48;1.00;;;0.90;;
422;SDS011;198;48.752;9.180;2024-02-26T15:23:14;1.20;;;1.10;;
422;SDS011;198;48.752;9.180;2024-02-26T15:25:39;5.40;;;1.47;;
422;SDS011;198;48.752;9.180;2024-02-26T15:28:06;1.93;;;1.20;;
422;SDS011;198;48.752;9.180;2024-02-26T15:30:32;1.73;;;1.20;;
422;SDS011;198;48.752;9.180;2024-02-26T15:32:58;1.50;;;1.10;;
422;SDS011;198;48.752;9.180;2024-02-26T15:35:25;2.13;;;1.43;;
422;SDS011;198;48.752;9.180;2024-02-26T15:37:50;1.67;;;1.30;;
422;SDS011;198;48.752;9.180;2024-02-26T15:40:16;5.03;;;1.33;;
422;SDS011;198;48.752;9.180;2024-02-26T15:42:42;2.23;;;1.30;;
422;SDS011;198;48.752;9.180;2024-02-26T15:45:07;1.40;;;1.10;;